Bob Baker Memorial Airport Kiana US
ICAO: PAIK
IATA:
Category: Medium
Scheduled Services:

Elevation: 166 ft
TransAlt. 18000 ft.

Airport Communications:
ANCHORAGE CNTR:119.2
CTAF:122.7

PAIK Zoom In..

Runways:

(A) RW 06 length 3400 ft width 100 ft
---- / hdg 64

(B) RW 24 length 3400 ft width 100 ft
---- / hdg 244

Location; PAIK
Day. 20 / Time. 02.56 Zulu
* Altimeter: 30.23
* Temperature: 14° c. 57.2°f.
* Wind from: 230° Speed 07 kn.
Dewpoint: 07° c.
Visibility: 10 Statute Miles.
Clouds: Overcast 3100 ft.

PAIK 200256Z AUTO 23007KT 10SM OVC031 14/07 A3023 RMK AO2 SLP240 T01390067 53005


Wind From 230°
Speed 07 kn.

 
 
jpsmedia.com for Web Design worldairports.se 2018   terms of use